Time;durP1;ratioP1;P1;durP2;ratioP2;P2;SDS_P1;SDS_P2;PMS_P1;PMS_P2;Temp;Humidity;BMP_temperature;BMP_pressure;BME280_temperature;BME280_humidity;BME280_pressure;Samples;Min_cycle;Max_cycle;Signal;HPM_P1;HPM_P2
2023/07/04 00:00:07;;;;;;;13.20;2.35;;;;;;;;;;5047753;28;20119;-72
2023/07/04 00:02:32;;;;;;;21.00;3.97;;;;;;;;;;5049476;28;20598;-72
2023/07/04 00:04:57;;;;;;;7.07;2.33;;;;;;;;;;5046945;28;20111;-72
2023/07/04 00:07:23;;;;;;;10.63;2.80;;;;;;;;;;5048297;28;20297;-73
2023/07/04 00:09:48;;;;;;;22.17;3.00;;;;;;;;;;5050300;28;20386;-72
2023/07/04 00:12:13;;;;;;;10.10;2.33;;;;;;;;;;5047578;28;20314;-72
2023/07/04 00:14:38;;;;;;;23.13;3.23;;;;;;;;;;5048443;28;20265;-72
2023/07/04 00:17:03;;;;;;;7.60;3.03;;;;;;;;;;5043385;28;20040;-72
2023/07/04 00:19:31;;;;;;;12.07;2.50;;;;;;;;;;5050073;28;20120;-72
2023/07/04 00:21:57;;;;;;;10.35;2.40;;;;;;;;;;5048854;28;20025;-72
2023/07/04 00:24:22;;;;;;;9.20;2.72;;;;;;;;;;5041401;28;20033;-72
2023/07/04 00:26:47;;;;;;;10.90;2.38;;;;;;;;;;5047354;28;20056;-73
2023/07/04 00:29:13;;;;;;;7.90;2.42;;;;;;;;;;5046599;28;20355;-72
2023/07/04 00:31:38;;;;;;;4.70;1.98;;;;;;;;;;5044168;28;20390;-72
2023/07/04 00:34:05;;;;;;;13.18;3.33;;;;;;;;;;5043025;28;20028;-72
2023/07/04 00:36:30;;;;;;;12.40;2.17;;;;;;;;;;5048958;28;20079;-72
2023/07/04 00:38:56;;;;;;;9.15;2.40;;;;;;;;;;5050345;28;20482;-72
2023/07/04 00:41:22;;;;;;;18.00;2.67;;;;;;;;;;5047679;28;20437;-73
2023/07/04 00:43:57;;;;;;;9.52;2.22;;;;;;;;;;5048741;28;20047;-73
2023/07/04 00:46:28;;;;;;;8.85;2.72;;;;;;;;;;5047612;28;20043;-72
2023/07/04 00:48:56;;;;;;;22.55;2.88;;;;;;;;;;5050205;28;20020;-72
2023/07/04 00:51:22;;;;;;;21.35;3.97;;;;;;;;;;5042942;28;20374;-72
2023/07/04 00:53:49;;;;;;;9.13;2.50;;;;;;;;;;5045598;28;20096;-73
2023/07/04 00:56:15;;;;;;;15.13;3.28;;;;;;;;;;5048274;28;20029;-72
2023/07/04 00:58:43;;;;;;;13.25;2.78;;;;;;;;;;5051038;28;20013;-72
2023/07/04 01:01:08;;;;;;;15.55;2.10;;;;;;;;;;5052131;28;20124;-72
2023/07/04 01:03:34;;;;;;;13.33;3.03;;;;;;;;;;5050690;28;20531;-72
2023/07/04 01:06:04;;;;;;;16.50;3.40;;;;;;;;;;5051764;28;20297;-73
2023/07/04 01:08:39;;;;;;;10.73;2.50;;;;;;;;;;5052863;28;20267;-72
2023/07/04 01:11:07;;;;;;;8.50;2.22;;;;;;;;;;5053700;28;20100;-73
2023/07/04 01:13:39;;;;;;;10.30;2.58;;;;;;;;;;5051226;28;20033;-73
2023/07/04 01:16:06;;;;;;;11.57;2.15;;;;;;;;;;5049987;28;20071;-72
2023/07/04 01:18:31;;;;;;;8.38;2.08;;;;;;;;;;5053017;28;20017;-73
2023/07/04 01:20:58;;;;;;;13.60;2.30;;;;;;;;;;5051144;28;20027;-72
2023/07/04 01:23:47;;;;;;;13.68;3.45;;;;;;;;;;5050756;28;20028;-72
2023/07/04 01:26:21;;;;;;;10.23;2.33;;;;;;;;;;5024520;28;20032;-73
2023/07/04 01:28:47;;;;;;;14.50;2.90;;;;;;;;;;5053441;28;20044;-72
2023/07/04 01:31:12;;;;;;;8.10;2.08;;;;;;;;;;5051956;28;20020;-72
2023/07/04 01:33:40;;;;;;;9.90;2.20;;;;;;;;;;5052101;28;20562;-73
2023/07/04 01:36:09;;;;;;;14.48;3.00;;;;;;;;;;5053242;28;20013;-73
2023/07/04 01:38:34;;;;;;;14.20;2.97;;;;;;;;;;5051328;28;20104;-72
2023/07/04 01:41:01;;;;;;;12.90;2.90;;;;;;;;;;5050787;28;20108;-72
2023/07/04 01:43:26;;;;;;;10.85;2.50;;;;;;;;;;5050879;28;20033;-72
2023/07/04 01:45:51;;;;;;;7.28;2.10;;;;;;;;;;5051944;28;20021;-72
2023/07/04 01:48:17;;;;;;;14.13;3.43;;;;;;;;;;5051850;28;20100;-72
2023/07/04 01:50:43;;;;;;;16.23;2.70;;;;;;;;;;5051996;28;20017;-72
2023/07/04 01:53:08;;;;;;;14.20;2.50;;;;;;;;;;5050511;28;20028;-72
2023/07/04 01:58:36;;;;;;;15.02;2.60;;;;;;;;;;5042792;28;20075;-73
2023/07/04 02:01:01;;;;;;;8.00;1.43;;;;;;;;;;5050708;28;20025;-73
2023/07/04 02:03:27;;;;;;;16.00;2.85;;;;;;;;;;5051094;28;20294;-72
2023/07/04 02:05:52;;;;;;;12.63;2.60;;;;;;;;;;5052748;28;20025;-72
2023/07/04 02:08:17;;;;;;;15.57;3.77;;;;;;;;;;5050112;28;20013;-72
2023/07/04 02:10:42;;;;;;;9.23;2.20;;;;;;;;;;5046659;28;20034;-72
2023/07/04 02:13:07;;;;;;;12.20;3.30;;;;;;;;;;5048721;28;20106;-72
2023/07/04 02:15:32;;;;;;;18.70;2.72;;;;;;;;;;5050478;28;20029;-72
2023/07/04 02:17:59;;;;;;;21.55;3.17;;;;;;;;;;5050298;28;20055;-72
2023/07/04 02:20:24;;;;;;;11.07;2.90;;;;;;;;;;5052102;28;20108;-72
2023/07/04 02:22:49;;;;;;;12.93;2.50;;;;;;;;;;5051268;28;20259;-72
2023/07/04 02:25:14;;;;;;;11.50;3.50;;;;;;;;;;5052519;28;20025;-72
2023/07/04 02:27:40;;;;;;;15.40;3.70;;;;;;;;;;5052235;28;20039;-73
2023/07/04 02:30:06;;;;;;;14.68;2.90;;;;;;;;;;5048524;28;20255;-72
2023/07/04 02:32:31;;;;;;;11.95;3.05;;;;;;;;;;5050630;28;20025;-72
2023/07/04 02:34:56;;;;;;;11.23;2.87;;;;;;;;;;5052225;28;20025;-72
2023/07/04 02:37:21;;;;;;;12.97;2.80;;;;;;;;;;5051634;28;21257;-72
2023/07/04 02:39:46;;;;;;;11.90;3.10;;;;;;;;;;5045329;28;20263;-72
2023/07/04 02:42:12;;;;;;;20.13;3.33;;;;;;;;;;5050556;28;20276;-73
2023/07/04 02:44:37;;;;;;;11.02;2.85;;;;;;;;;;5052241;28;21818;-72
2023/07/04 02:47:02;;;;;;;16.08;2.72;;;;;;;;;;5047684;28;20077;-73
2023/07/04 02:49:27;;;;;;;14.88;2.67;;;;;;;;;;5046633;28;20029;-72
2023/07/04 02:51:53;;;;;;;14.80;2.67;;;;;;;;;;5048931;28;20020;-73
2023/07/04 02:54:18;;;;;;;18.47;2.63;;;;;;;;;;5049775;28;20380;-72
2023/07/04 02:56:44;;;;;;;11.00;2.22;;;;;;;;;;5048122;28;20024;-72
2023/07/04 02:59:09;;;;;;;16.08;3.38;;;;;;;;;;5046921;28;20808;-72
2023/07/04 03:01:34;;;;;;;15.93;2.67;;;;;;;;;;5050258;28;20020;-72
2023/07/04 03:04:00;;;;;;;16.15;2.67;;;;;;;;;;5051725;28;20021;-72
2023/07/04 03:06:25;;;;;;;12.93;2.97;;;;;;;;;;5050064;28;20021;-72
2023/07/04 03:08:50;;;;;;;21.23;3.17;;;;;;;;;;5051696;28;20470;-72
2023/07/04 03:11:15;;;;;;;20.52;3.88;;;;;;;;;;5048943;28;20275;-72
2023/07/04 03:13:40;;;;;;;17.90;2.50;;;;;;;;;;5049205;28;20033;-72
2023/07/04 03:16:06;;;;;;;16.13;3.23;;;;;;;;;;5049069;28;20346;-72
2023/07/04 03:18:32;;;;;;;12.50;2.70;;;;;;;;;;5050584;28;20325;-72
2023/07/04 03:20:57;;;;;;;12.40;2.75;;;;;;;;;;5047778;28;20094;-72
2023/07/04 03:23:22;;;;;;;19.27;3.25;;;;;;;;;;5050657;28;20525;-72
2023/07/04 03:25:47;;;;;;;14.43;3.23;;;;;;;;;;5048499;28;20033;-72
2023/07/04 03:28:12;;;;;;;11.73;3.10;;;;;;;;;;5051009;28;20275;-72
2023/07/04 03:30:38;;;;;;;21.53;3.77;;;;;;;;;;5050346;28;20024;-72
2023/07/04 03:33:03;;;;;;;9.60;2.43;;;;;;;;;;5049736;28;20271;-73
2023/07/04 03:35:28;;;;;;;18.42;2.90;;;;;;;;;;5048949;28;20120;-72
2023/07/04 03:37:53;;;;;;;12.87;3.07;;;;;;;;;;5051136;28;20382;-73
2023/07/04 03:40:18;;;;;;;22.13;2.87;;;;;;;;;;5047589;28;20021;-72
2023/07/04 03:42:44;;;;;;;17.88;2.90;;;;;;;;;;5051044;28;20032;-72
2023/07/04 03:45:09;;;;;;;11.60;2.67;;;;;;;;;;5049410;28;20112;-72
2023/07/04 03:47:35;;;;;;;14.80;2.88;;;;;;;;;;5050854;28;20345;-72
2023/07/04 03:50:00;;;;;;;17.15;3.47;;;;;;;;;;5048324;28;20009;-72
2023/07/04 03:52:25;;;;;;;11.77;2.60;;;;;;;;;;5048713;28;20021;-72
2023/07/04 03:54:51;;;;;;;20.60;4.07;;;;;;;;;;5047970;28;20024;-72
2023/07/04 03:57:16;;;;;;;20.42;2.42;;;;;;;;;;5049758;28;20697;-72
2023/07/04 03:59:42;;;;;;;19.55;2.75;;;;;;;;;;5048361;28;20024;-73
2023/07/04 04:02:07;;;;;;;15.67;2.60;;;;;;;;;;5050463;28;20473;-73
2023/07/04 04:04:39;;;;;;;12.93;2.83;;;;;;;;;;5049555;28;20288;-72
2023/07/04 04:07:04;;;;;;;15.82;2.97;;;;;;;;;;5049321;28;20500;-72
2023/07/04 04:09:29;;;;;;;22.40;3.08;;;;;;;;;;5048615;28;20017;-72
2023/07/04 04:11:54;;;;;;;12.77;2.50;;;;;;;;;;5048138;28;20021;-73
2023/07/04 04:14:19;;;;;;;22.40;3.83;;;;;;;;;;5049401;28;20240;-72
2023/07/04 04:16:45;;;;;;;17.47;3.40;;;;;;;;;;5048424;28;20025;-73
2023/07/04 04:19:10;;;;;;;12.70;3.50;;;;;;;;;;5050015;28;20017;-72
2023/07/04 04:21:35;;;;;;;16.13;3.33;;;;;;;;;;5045063;28;20092;-72
2023/07/04 04:24:00;;;;;;;26.67;3.58;;;;;;;;;;5050179;28;20032;-72
2023/07/04 04:26:25;;;;;;;12.57;2.57;;;;;;;;;;5048430;28;20029;-72
2023/07/04 04:28:51;;;;;;;26.52;3.30;;;;;;;;;;5050323;28;20247;-72
2023/07/04 04:31:18;;;;;;;18.80;3.30;;;;;;;;;;5046223;28;20029;-72
2023/07/04 04:33:44;;;;;;;15.15;2.55;;;;;;;;;;5048579;28;20023;-72
2023/07/04 04:36:09;;;;;;;13.25;2.97;;;;;;;;;;5047695;28;20107;-73
2023/07/04 04:38:36;;;;;;;13.40;3.27;;;;;;;;;;5048174;28;20056;-73
2023/07/04 04:41:08;;;;;;;11.65;3.05;;;;;;;;;;5047309;28;20274;-73
2023/07/04 04:43:33;;;;;;;23.63;4.18;;;;;;;;;;5044889;28;20108;-72
2023/07/04 04:45:59;;;;;;;19.88;2.97;;;;;;;;;;5048914;28;20465;-73
2023/07/04 04:48:29;;;;;;;22.23;3.72;;;;;;;;;;5046136;28;20039;-73
2023/07/04 04:50:54;;;;;;;17.10;3.28;;;;;;;;;;5048298;28;20052;-73
2023/07/04 04:53:19;;;;;;;23.33;4.03;;;;;;;;;;5045664;28;20450;-72
2023/07/04 04:55:44;;;;;;;13.40;3.60;;;;;;;;;;5048350;28;20033;-73
2023/07/04 04:58:10;;;;;;;17.57;3.07;;;;;;;;;;5047922;28;20040;-72
2023/07/04 05:00:35;;;;;;;15.77;3.60;;;;;;;;;;5048712;28;20372;-73
2023/07/04 05:03:00;;;;;;;17.40;4.00;;;;;;;;;;5048081;28;20036;-72
2023/07/04 05:05:25;;;;;;;17.92;4.35;;;;;;;;;;5045080;28;20044;-72
2023/07/04 05:07:50;;;;;;;21.63;3.50;;;;;;;;;;5048113;28;20017;-73
2023/07/04 05:10:16;;;;;;;18.03;3.20;;;;;;;;;;5047175;28;20075;-73
2023/07/04 05:12:41;;;;;;;15.37;3.97;;;;;;;;;;5041834;28;20272;-72
2023/07/04 05:15:06;;;;;;;32.60;4.43;;;;;;;;;;5044396;28;20286;-72
2023/07/04 05:17:32;;;;;;;19.00;3.67;;;;;;;;;;5047765;28;20275;-72
2023/07/04 05:19:59;;;;;;;18.60;3.50;;;;;;;;;;5047556;28;20021;-73
2023/07/04 05:22:24;;;;;;;13.45;3.30;;;;;;;;;;5043953;28;20025;-72
2023/07/04 05:24:50;;;;;;;16.43;5.17;;;;;;;;;;5047048;28;20032;-72
2023/07/04 05:27:16;;;;;;;19.35;4.25;;;;;;;;;;5047923;28;20083;-72
2023/07/04 05:29:41;;;;;;;12.68;2.90;;;;;;;;;;5043001;28;20108;-72
2023/07/04 05:32:06;;;;;;;17.20;3.63;;;;;;;;;;5045775;28;20021;-73
2023/07/04 05:34:31;;;;;;;22.13;3.83;;;;;;;;;;5043136;28;20359;-72
2023/07/04 05:36:57;;;;;;;20.00;3.80;;;;;;;;;;5043816;28;20386;-72
2023/07/04 05:39:22;;;;;;;13.73;2.93;;;;;;;;;;5045341;28;20129;-72
2023/07/04 05:41:47;;;;;;;20.13;4.77;;;;;;;;;;5036516;28;20286;-72
2023/07/04 05:44:13;;;;;;;16.45;3.05;;;;;;;;;;5047230;28;20723;-72
2023/07/04 05:46:38;;;;;;;18.83;3.28;;;;;;;;;;5042752;28;20116;-72
2023/07/04 05:49:04;;;;;;;15.90;3.80;;;;;;;;;;5043451;28;20029;-72
2023/07/04 05:51:29;;;;;;;17.85;3.78;;;;;;;;;;5048437;28;20306;-72
2023/07/04 05:53:54;;;;;;;20.88;3.33;;;;;;;;;;5049764;28;20044;-72
2023/07/04 05:56:21;;;;;;;11.45;2.92;;;;;;;;;;5047564;28;20501;-72
2023/07/04 05:58:48;;;;;;;15.77;3.65;;;;;;;;;;5050583;28;20100;-72
2023/07/04 06:01:18;;;;;;;21.23;3.20;;;;;;;;;;5048977;28;20506;-72
2023/07/04 06:03:46;;;;;;;19.33;2.95;;;;;;;;;;5050406;28;20478;-72
2023/07/04 06:06:16;;;;;;;22.73;2.95;;;;;;;;;;5048742;28;20103;-72
2023/07/04 06:08:41;;;;;;;15.43;3.55;;;;;;;;;;5049783;28;20024;-72
2023/07/04 06:11:07;;;;;;;17.25;3.80;;;;;;;;;;5049250;28;20648;-72
2023/07/04 06:13:32;;;;;;;25.30;4.30;;;;;;;;;;5048596;28;20538;-72
2023/07/04 06:15:58;;;;;;;17.98;3.45;;;;;;;;;;5050977;28;20486;-72
2023/07/04 06:18:23;;;;;;;14.30;2.75;;;;;;;;;;5051901;28;20060;-72
2023/07/04 06:20:48;;;;;;;27.13;5.30;;;;;;;;;;5051423;28;20060;-72
2023/07/04 06:23:14;;;;;;;16.17;3.63;;;;;;;;;;5051494;28;20350;-72
2023/07/04 06:25:39;;;;;;;14.18;2.53;;;;;;;;;;5051576;28;20400;-72
2023/07/04 06:28:04;;;;;;;21.53;3.00;;;;;;;;;;5053071;28;20092;-72
2023/07/04 06:30:33;;;;;;;18.48;3.63;;;;;;;;;;5050141;28;20033;-72
2023/07/04 06:32:58;;;;;;;18.25;3.95;;;;;;;;;;5051451;28;20017;-72
2023/07/04 06:35:23;;;;;;;23.50;3.67;;;;;;;;;;5043409;28;20621;-72
2023/07/04 06:37:49;;;;;;;19.63;3.95;;;;;;;;;;5046138;28;20056;-72
2023/07/04 06:40:14;;;;;;;29.52;3.85;;;;;;;;;;5047577;28;20119;-72
2023/07/04 06:42:39;;;;;;;19.60;3.53;;;;;;;;;;5048727;28;20024;-72
2023/07/04 06:45:05;;;;;;;22.37;4.57;;;;;;;;;;5050847;28;20029;-73
2023/07/04 06:47:30;;;;;;;17.85;3.22;;;;;;;;;;5049631;28;20018;-72
2023/07/04 06:49:55;;;;;;;14.43;2.63;;;;;;;;;;5048157;28;20029;-72
2023/07/04 06:52:21;;;;;;;20.08;3.15;;;;;;;;;;5044069;28;20029;-72
2023/07/04 06:54:50;;;;;;;14.20;4.38;;;;;;;;;;5042587;28;20052;-72
2023/07/04 06:57:15;;;;;;;15.40;3.72;;;;;;;;;;5047514;28;20430;-72
2023/07/04 06:59:40;;;;;;;19.93;4.63;;;;;;;;;;5041542;28;20088;-72
2023/07/04 07:02:05;;;;;;;16.02;3.90;;;;;;;;;;5045362;28;20036;-72
2023/07/04 07:04:31;;;;;;;27.52;5.45;;;;;;;;;;5047138;28;20028;-72
2023/07/04 07:06:56;;;;;;;20.67;3.97;;;;;;;;;;5048592;28;20067;-72
2023/07/04 07:09:22;;;;;;;18.23;3.63;;;;;;;;;;5047027;28;20410;-72
2023/07/04 07:11:47;;;;;;;30.13;3.92;;;;;;;;;;5046632;28;20660;-72
2023/07/04 07:14:12;;;;;;;17.83;3.90;;;;;;;;;;5046424;28;20462;-72
2023/07/04 07:16:37;;;;;;;25.37;4.00;;;;;;;;;;5047148;28;20025;-72
2023/07/04 07:19:02;;;;;;;19.30;5.80;;;;;;;;;;5043616;28;20272;-72
2023/07/04 07:21:27;;;;;;;17.43;2.80;;;;;;;;;;5043554;28;20033;-72
2023/07/04 07:23:53;;;;;;;13.80;3.33;;;;;;;;;;5040843;28;20102;-72
2023/07/04 07:26:20;;;;;;;13.48;3.47;;;;;;;;;;5045253;28;20028;-72
2023/07/04 07:28:45;;;;;;;10.73;2.63;;;;;;;;;;5047348;28;20052;-72
2023/07/04 07:31:12;;;;;;;12.18;2.70;;;;;;;;;;5044835;28;20044;-71
2023/07/04 07:33:39;;;;;;;14.10;3.47;;;;;;;;;;5048489;28;20470;-71
2023/07/04 07:36:23;;;;;;;13.50;3.75;;;;;;;;;;5048429;28;20033;-71
2023/07/04 07:38:48;;;;;;;14.05;2.40;;;;;;;;;;5039318;28;20556;-72
2023/07/04 07:41:14;;;;;;;13.70;2.95;;;;;;;;;;5045942;28;20028;-71
2023/07/04 07:43:40;;;;;;;9.25;1.75;;;;;;;;;;5047938;28;20371;-72
2023/07/04 07:46:07;;;;;;;16.05;2.85;;;;;;;;;;5046043;28;20025;-71
2023/07/04 07:48:33;;;;;;;15.00;3.00;;;;;;;;;;5046351;28;20032;-71
2023/07/04 07:50:58;;;;;;;13.63;3.13;;;;;;;;;;5043352;28;20026;-71
2023/07/04 07:53:23;;;;;;;9.80;2.63;;;;;;;;;;5043674;28;20282;-71
2023/07/04 07:55:48;;;;;;;18.37;4.70;;;;;;;;;;5043345;28;20311;-71
2023/07/04 07:58:13;;;;;;;13.23;3.30;;;;;;;;;;5046095;28;20032;-71
2023/07/04 08:00:38;;;;;;;13.53;3.20;;;;;;;;;;5044788;28;20028;-71
2023/07/04 08:03:04;;;;;;;10.67;3.17;;;;;;;;;;5042339;28;20021;-71
2023/07/04 08:05:29;;;;;;;15.87;2.63;;;;;;;;;;5048309;28;20029;-72
2023/07/04 08:07:54;;;;;;;18.33;3.17;;;;;;;;;;5046906;28;20391;-72
2023/07/04 08:10:19;;;;;;;15.48;2.70;;;;;;;;;;5045012;28;20016;-72
2023/07/04 08:12:44;;;;;;;17.60;3.03;;;;;;;;;;5048344;28;20098;-72
2023/07/04 08:15:10;;;;;;;13.57;2.97;;;;;;;;;;5050381;28;20469;-72
2023/07/04 08:17:36;;;;;;;14.93;3.25;;;;;;;;;;5046600;28;20016;-72
2023/07/04 08:20:02;;;;;;;16.92;2.90;;;;;;;;;;5045507;28;20017;-72
2023/07/04 08:22:27;;;;;;;12.65;3.22;;;;;;;;;;5046293;28;20121;-72
2023/07/04 08:24:52;;;;;;;11.00;2.40;;;;;;;;;;5046766;28;20017;-72
2023/07/04 08:27:17;;;;;;;12.70;2.43;;;;;;;;;;5046132;28;20359;-72
2023/07/04 08:29:42;;;;;;;13.07;2.80;;;;;;;;;;5047079;28;20051;-73
2023/07/04 08:32:10;;;;;;;10.73;2.80;;;;;;;;;;5050374;28;20267;-72
2023/07/04 08:34:35;;;;;;;15.02;2.38;;;;;;;;;;5050295;28;20096;-73
2023/07/04 08:37:00;;;;;;;11.03;2.67;;;;;;;;;;5048340;28;20121;-73
2023/07/04 08:39:25;;;;;;;9.98;2.10;;;;;;;;;;5043277;28;20397;-72
2023/07/04 08:41:59;;;;;;;14.27;3.07;;;;;;;;;;5040604;28;20104;-72
2023/07/04 08:44:27;;;;;;;15.50;3.03;;;;;;;;;;5048746;28;20013;-73
2023/07/04 08:46:53;;;;;;;7.93;2.42;;;;;;;;;;5050002;28;20021;-72
2023/07/04 08:49:24;;;;;;;14.85;3.60;;;;;;;;;;5045237;28;20052;-72
2023/07/04 08:51:54;;;;;;;11.98;2.40;;;;;;;;;;5042672;28;20108;-72
2023/07/04 08:54:20;;;;;;;11.43;2.30;;;;;;;;;;5045062;28;20021;-72
2023/07/04 08:56:46;;;;;;;8.13;2.63;;;;;;;;;;5047317;28;20033;-72
2023/07/04 08:59:26;;;;;;;12.00;2.60;;;;;;;;;;5046967;28;20029;-72
2023/07/04 09:01:54;;;;;;;13.95;2.33;;;;;;;;;;5043319;28;20009;-73
2023/07/04 09:04:40;;;;;;;11.60;2.45;;;;;;;;;;5048694;28;20385;-72
2023/07/04 09:07:15;;;;;;;11.02;2.50;;;;;;;;;;5017952;28;20033;-72
2023/07/04 09:09:51;;;;;;;11.45;2.70;;;;;;;;;;5050167;28;20021;-72
2023/07/04 09:12:16;;;;;;;8.95;2.28;;;;;;;;;;5049540;28;20029;-72
2023/07/04 09:14:45;;;;;;;8.07;2.03;;;;;;;;;;5041006;28;20021;-72
2023/07/04 09:17:21;;;;;;;6.45;2.30;;;;;;;;;;5048883;28;20048;-72
2023/07/04 09:19:47;;;;;;;13.88;2.90;;;;;;;;;;5047408;28;20104;-73
2023/07/04 09:22:12;;;;;;;23.67;2.70;;;;;;;;;;5044484;28;20492;-72
2023/07/04 09:24:37;;;;;;;5.87;1.53;;;;;;;;;;5042429;28;20070;-72
2023/07/04 09:27:02;;;;;;;17.00;2.72;;;;;;;;;;5046269;28;20332;-73
2023/07/04 09:29:28;;;;;;;10.40;3.15;;;;;;;;;;5049877;28;20509;-72
2023/07/04 09:31:58;;;;;;;12.50;2.65;;;;;;;;;;5042415;28;20079;-72
2023/07/04 09:34:23;;;;;;;;;;;;;;;;;;5043291;28;20532;-72
2023/07/04 09:36:51;;;;;;;8.10;2.80;;;;;;;;;;5048491;28;20404;-72
2023/07/04 09:39:16;;;;;;;9.68;3.08;;;;;;;;;;5039342;28;20053;-72
2023/07/04 09:41:41;;;;;;;7.90;2.63;;;;;;;;;;5048480;28;20552;-72
2023/07/04 09:44:17;;;;;;;13.67;2.77;;;;;;;;;;5049607;28;20028;-72
2023/07/04 09:46:52;;;;;;;9.60;2.20;;;;;;;;;;5050194;28;20283;-71
2023/07/04 09:49:18;;;;;;;9.13;2.83;;;;;;;;;;5047178;28;20021;-72
2023/07/04 09:51:43;;;;;;;15.23;2.08;;;;;;;;;;5051084;28;20069;-73
2023/07/04 09:54:18;;;;;;;11.60;2.43;;;;;;;;;;5047754;28;20141;-72
2023/07/04 09:56:43;;;;;;;25.40;4.93;;;;;;;;;;5047521;28;20052;-72
2023/07/04 09:59:11;;;;;;;12.20;2.83;;;;;;;;;;5049718;28;20629;-72
2023/07/04 10:01:47;;;;;;;12.98;2.95;;;;;;;;;;5049927;28;20033;-72
2023/07/04 10:04:13;;;;;;;12.20;3.15;;;;;;;;;;5047620;28;20074;-72
2023/07/04 10:06:39;;;;;;;17.42;3.10;;;;;;;;;;5045261;28;20049;-73
2023/07/04 10:09:11;;;;;;;15.32;3.30;;;;;;;;;;5048141;28;20673;-72
2023/07/04 10:11:39;;;;;;;15.05;3.88;;;;;;;;;;5045231;28;20025;-72
2023/07/04 10:14:09;;;;;;;13.05;2.65;;;;;;;;;;5044086;28;20045;-73
2023/07/04 10:16:35;;;;;;;13.32;3.25;;;;;;;;;;5047146;28;20025;-71
2023/07/04 10:19:11;;;;;;;5.70;1.40;;;;;;;;;;5042744;28;20030;-71
2023/07/04 10:21:48;;;;;;;11.88;3.38;;;;;;;;;;5048324;28;20021;-72
2023/07/04 10:24:23;;;;;;;11.85;3.50;;;;;;;;;;5050016;28;20024;-72
2023/07/04 10:26:54;;;;;;;16.60;3.22;;;;;;;;;;5047826;28;20509;-72
2023/07/04 10:29:23;;;;;;;7.95;2.97;;;;;;;;;;5044231;28;20091;-72
2023/07/04 10:31:48;;;;;;;8.10;2.40;;;;;;;;;;5046673;28;20385;-73
2023/07/04 10:34:15;;;;;;;15.85;3.20;;;;;;;;;;5044633;28;20017;-73
2023/07/04 10:36:43;;;;;;;10.85;3.08;;;;;;;;;;5048670;28;20032;-72
2023/07/04 10:39:11;;;;;;;10.05;3.47;;;;;;;;;;5047567;28;20029;-72
2023/07/04 10:41:39;;;;;;;13.85;4.13;;;;;;;;;;5046096;28;20047;-73
2023/07/04 10:44:11;;;;;;;10.88;3.60;;;;;;;;;;5046899;28;20029;-72
2023/07/04 10:46:48;;;;;;;13.02;3.78;;;;;;;;;;5039948;28;20112;-72
2023/07/04 10:49:16;;;;;;;11.10;3.50;;;;;;;;;;5047824;28;20911;-72
2023/07/04 10:51:42;;;;;;;9.63;3.67;;;;;;;;;;5046422;28;20104;-72
2023/07/04 10:54:11;;;;;;;12.65;3.58;;;;;;;;;;5043897;28;20132;-72
2023/07/04 10:56:36;;;;;;;22.42;4.30;;;;;;;;;;5045820;28;20020;-72
2023/07/04 10:59:05;;;;;;;12.87;3.90;;;;;;;;;;5046635;28;20017;-72
2023/07/04 11:01:34;;;;;;;16.25;3.17;;;;;;;;;;5041564;28;21034;-72
2023/07/04 11:04:04;;;;;;;10.60;4.03;;;;;;;;;;5049386;28;20024;-72
2023/07/04 11:06:42;;;;;;;11.65;4.05;;;;;;;;;;5042365;28;20090;-72
2023/07/04 11:09:09;;;;;;;9.25;4.05;;;;;;;;;;5043364;28;20024;-73
2023/07/04 11:11:35;;;;;;;17.83;3.60;;;;;;;;;;5044535;28;20036;-72
2023/07/04 11:14:05;;;;;;;15.38;4.78;;;;;;;;;;5047924;28;20048;-72
2023/07/04 11:16:31;;;;;;;;;;;;;;;;;;5045550;28;20549;-72
2023/07/04 11:19:03;;;;;;;9.30;4.10;;;;;;;;;;5042083;28;19917;-72
2023/07/04 11:21:29;;;;;;;13.18;4.18;;;;;;;;;;5041632;28;20571;-72
2023/07/04 11:24:08;;;;;;;14.93;4.25;;;;;;;;;;5048835;28;20029;-72
2023/07/04 11:27:05;;;;;;;16.98;5.00;;;;;;;;;;5043683;28;20029;-72
2023/07/04 11:29:51;;;;;;;13.77;4.35;;;;;;;;;;5012724;28;20033;-72
2023/07/04 11:32:36;;;;;;;12.45;3.92;;;;;;;;;;5047999;28;20009;-73
2023/07/04 11:35:11;;;;;;;14.27;4.13;;;;;;;;;;5037562;28;20036;-72
2023/07/04 11:37:51;;;;;;;7.80;3.92;;;;;;;;;;5040213;28;20025;-72
2023/07/04 11:40:18;;;;;;;11.15;4.57;;;;;;;;;;5045392;28;20031;-72
2023/07/04 11:42:47;;;;;;;15.15;4.60;;;;;;;;;;5045858;28;20040;-73
2023/07/04 11:45:13;;;;;;;12.43;4.40;;;;;;;;;;5049281;28;20504;-72
2023/07/04 11:47:41;;;;;;;12.45;4.95;;;;;;;;;;5047336;28;20036;-72
2023/07/04 11:50:10;;;;;;;10.88;3.97;;;;;;;;;;5046156;28;20040;-73
2023/07/04 11:52:38;;;;;;;12.48;4.30;;;;;;;;;;5041038;28;20075;-73
2023/07/04 11:55:08;;;;;;;10.45;4.15;;;;;;;;;;5059626;28;20064;-72
2023/07/04 11:58:00;;;;;;;10.30;4.15;;;;;;;;;;5039354;28;20048;-73
2023/07/04 12:00:31;;;;;;;13.75;4.32;;;;;;;;;;5020157;28;20747;-72
2023/07/04 12:02:57;;;;;;;17.67;4.78;;;;;;;;;;5045346;28;20028;-72
2023/07/04 12:05:32;;;;;;;14.48;4.80;;;;;;;;;;5044249;28;20098;-73
2023/07/04 12:08:04;;;;;;;15.48;4.47;;;;;;;;;;5043335;28;20117;-72
2023/07/04 12:10:30;;;;;;;13.85;4.47;;;;;;;;;;5042430;28;20025;-72
2023/07/04 12:12:57;;;;;;;12.90;4.50;;;;;;;;;;5043942;28;20203;-73
2023/07/04 12:15:26;;;;;;;12.23;4.93;;;;;;;;;;5044288;28;20081;-73
2023/07/04 12:17:54;;;;;;;11.70;4.25;;;;;;;;;;5045649;28;20025;-72
2023/07/04 12:20:20;;;;;;;11.60;4.35;;;;;;;;;;5046805;28;20035;-72
2023/07/04 12:22:53;;;;;;;10.88;4.60;;;;;;;;;;5045364;28;20569;-73
2023/07/04 12:25:20;;;;;;;14.18;4.97;;;;;;;;;;5045839;28;20025;-72
2023/07/04 12:27:45;;;;;;;14.30;5.60;;;;;;;;;;5044707;28;20428;-72
2023/07/04 12:30:12;;;;;;;11.00;4.68;;;;;;;;;;5045886;28;20013;-73
2023/07/04 12:32:37;;;;;;;10.38;3.97;;;;;;;;;;5042618;28;20013;-72
2023/07/04 12:35:03;;;;;;;15.32;4.60;;;;;;;;;;5047201;28;20036;-73
2023/07/04 12:37:31;;;;;;;11.10;4.60;;;;;;;;;;5046168;28;20036;-73
2023/07/04 12:39:59;;;;;;;11.63;4.65;;;;;;;;;;5046285;28;20111;-73
2023/07/04 12:42:29;;;;;;;12.65;4.65;;;;;;;;;;5045541;28;20033;-72
2023/07/04 12:44:54;;;;;;;14.07;5.25;;;;;;;;;;5042917;28;20100;-72
2023/07/04 12:47:22;;;;;;;14.67;5.40;;;;;;;;;;5043853;28;20107;-73
2023/07/04 12:49:48;;;;;;;11.48;4.78;;;;;;;;;;5044432;28;20263;-73
2023/07/04 12:52:13;;;;;;;19.20;5.65;;;;;;;;;;5046958;28;20024;-72
2023/07/04 12:54:39;;;;;;;24.95;5.55;;;;;;;;;;5043952;28;20417;-72
2023/07/04 12:57:05;;;;;;;10.98;5.13;;;;;;;;;;5045238;28;20479;-72
2023/07/04 12:59:31;;;;;;;16.88;5.28;;;;;;;;;;5044904;28;20025;-72
2023/07/04 13:01:57;;;;;;;18.00;5.25;;;;;;;;;;5042563;28;20021;-73
2023/07/04 13:04:22;;;;;;;11.55;5.13;;;;;;;;;;5044106;28;20536;-73
2023/07/04 13:06:49;;;;;;;10.98;5.13;;;;;;;;;;5045436;28;20116;-72
2023/07/04 13:09:15;;;;;;;16.35;5.45;;;;;;;;;;5043905;28;20026;-73
2023/07/04 13:11:43;;;;;;;16.95;5.53;;;;;;;;;;5044898;28;20385;-73
2023/07/04 13:14:10;;;;;;;11.63;4.55;;;;;;;;;;5047731;28;20017;-73
2023/07/04 13:16:35;;;;;;;14.38;6.10;;;;;;;;;;5043733;28;20025;-73
2023/07/04 13:19:03;;;;;;;11.13;5.17;;;;;;;;;;5043175;28;20086;-73
2023/07/04 13:21:33;;;;;;;11.00;5.13;;;;;;;;;;5045573;28;20935;-73
2023/07/04 13:23:59;;;;;;;17.00;6.00;;;;;;;;;;5046322;28;20017;-73
2023/07/04 13:26:26;;;;;;;8.25;4.57;;;;;;;;;;5044139;28;20037;-74
2023/07/04 13:28:56;;;;;;;9.57;5.20;;;;;;;;;;5041858;28;20021;-73
2023/07/04 13:31:24;;;;;;;13.23;4.47;;;;;;;;;;5044968;28;20044;-73
2023/07/04 13:33:51;;;;;;;11.18;4.97;;;;;;;;;;5044215;28;20021;-73
2023/07/04 13:36:18;;;;;;;14.77;7.22;;;;;;;;;;5044729;28;20023;-73
2023/07/04 13:38:43;;;;;;;13.32;5.70;;;;;;;;;;5043496;28;20022;-73
2023/07/04 13:41:09;;;;;;;15.32;5.90;;;;;;;;;;5044351;28;20031;-73
2023/07/04 13:43:35;;;;;;;21.55;6.38;;;;;;;;;;5046681;28;20441;-73
2023/07/04 13:46:00;;;;;;;11.65;5.18;;;;;;;;;;5041614;28;20017;-73
2023/07/04 13:48:25;;;;;;;14.40;5.78;;;;;;;;;;5043238;28;20100;-73
2023/07/04 13:50:51;;;;;;;10.30;5.13;;;;;;;;;;5040907;28;20032;-73
2023/07/04 13:53:16;;;;;;;15.55;5.40;;;;;;;;;;5039636;28;20275;-73
2023/07/04 13:55:42;;;;;;;11.70;5.68;;;;;;;;;;5037779;28;20017;-73
2023/07/04 13:58:07;;;;;;;12.55;6.63;;;;;;;;;;5049009;28;20021;-74
2023/07/04 14:00:32;;;;;;;10.50;5.70;;;;;;;;;;5043395;28;20701;-73
2023/07/04 14:02:58;;;;;;;11.13;5.00;;;;;;;;;;5043497;28;20020;-73
2023/07/04 14:05:23;;;;;;;12.63;5.05;;;;;;;;;;5046556;28;20101;-73
2023/07/04 14:07:48;;;;;;;12.90;6.20;;;;;;;;;;5048892;28;20040;-73
2023/07/04 14:10:14;;;;;;;14.18;5.85;;;;;;;;;;5048029;28;20274;-73
2023/07/04 14:12:39;;;;;;;14.48;5.78;;;;;;;;;;5046666;28;20107;-73
2023/07/04 14:15:08;;;;;;;13.75;5.90;;;;;;;;;;5049631;28;20051;-73
2023/07/04 14:17:33;;;;;;;22.13;5.78;;;;;;;;;;5047318;28;20112;-73
2023/07/04 14:19:58;;;;;;;11.20;5.50;;;;;;;;;;5044371;28;20149;-74
2023/07/04 14:22:23;;;;;;;14.77;5.70;;;;;;;;;;5049655;28;21637;-73
2023/07/04 14:24:48;;;;;;;9.43;5.33;;;;;;;;;;5048011;28;20037;-73
2023/07/04 14:27:14;;;;;;;15.40;5.97;;;;;;;;;;5047191;28;20027;-73
2023/07/04 14:29:39;;;;;;;12.70;5.60;;;;;;;;;;5046295;28;20040;-73
2023/07/04 14:32:04;;;;;;;12.37;5.23;;;;;;;;;;5047593;28;20083;-73